sensor_id;sensor_type;location;lat;lon;timestamp;pressure;altitude;pressure_sealevel;temperature;humidity
6853;BME280;3465;42.144;24.722;2022-10-23T00:01:57;99840.38;;;10.64;nan
6853;BME280;3465;42.144;24.722;2022-10-23T00:04:23;99852.59;;;10.75;nan
6853;BME280;3465;42.144;24.722;2022-10-23T00:06:52;99841.25;;;10.64;nan
6853;BME280;3465;42.144;24.722;2022-10-23T00:09:20;99852.38;;;10.65;nan
6853;BME280;3465;42.144;24.722;2022-10-23T00:11:47;99854.06;;;10.63;nan
6853;BME280;3465;42.144;24.722;2022-10-23T00:14:19;99850.34;;;10.49;nan
6853;BME280;3465;42.144;24.722;2022-10-23T00:16:45;99821.00;;;10.38;nan
6853;BME280;3465;42.144;24.722;2022-10-23T00:19:11;99828.75;;;10.39;nan
6853;BME280;3465;42.144;24.722;2022-10-23T00:21:37;99802.97;;;10.33;nan
6853;BME280;3465;42.144;24.722;2022-10-23T00:24:03;99808.91;;;10.31;nan
6853;BME280;3465;42.144;24.722;2022-10-23T00:26:29;99808.25;;;10.42;nan
6853;BME280;3465;42.144;24.722;2022-10-23T00:28:54;99784.09;;;10.33;nan
6853;BME280;3465;42.144;24.722;2022-10-23T00:31:21;99817.63;;;10.39;nan
6853;BME280;3465;42.144;24.722;2022-10-23T00:33:47;99802.94;;;10.32;nan
6853;BME280;3465;42.144;24.722;2022-10-23T00:36:14;99819.38;;;10.41;nan
6853;BME280;3465;42.144;24.722;2022-10-23T00:38:40;99798.59;;;10.28;nan
6853;BME280;3465;42.144;24.722;2022-10-23T00:41:07;99814.16;;;10.37;nan
6853;BME280;3465;42.144;24.722;2022-10-23T00:43:33;99824.44;;;10.37;nan
6853;BME280;3465;42.144;24.722;2022-10-23T00:45:59;99802.91;;;10.30;nan
6853;BME280;3465;42.144;24.722;2022-10-23T00:48:26;99819.22;;;10.32;nan
6853;BME280;3465;42.144;24.722;2022-10-23T00:50:52;99810.59;;;10.30;nan
6853;BME280;3465;42.144;24.722;2022-10-23T00:53:19;99785.53;;;10.19;nan
6853;BME280;3465;42.144;24.722;2022-10-23T00:55:46;99817.44;;;10.31;nan
6853;BME280;3465;42.144;24.722;2022-10-23T00:58:14;99801.84;;;10.21;nan
6853;BME280;3465;42.144;24.722;2022-10-23T01:03:15;99820.13;;;10.36;nan
6853;BME280;3465;42.144;24.722;2022-10-23T01:06:04;99814.03;;;10.31;nan
6853;BME280;3465;42.144;24.722;2022-10-23T01:08:51;99809.72;;;10.30;nan
6853;BME280;3465;42.144;24.722;2022-10-23T01:28:21;99825.03;;;10.25;nan
6853;BME280;3465;42.144;24.722;2022-10-23T01:30:50;99807.72;;;10.15;nan
6853;BME280;3465;42.144;24.722;2022-10-23T01:33:25;99804.41;;;10.21;nan
6853;BME280;3465;42.144;24.722;2022-10-23T01:36:00;99772.19;;;9.94;nan
6853;BME280;3465;42.144;24.722;2022-10-23T01:38:55;99796.31;;;10.04;nan
6853;BME280;3465;42.144;24.722;2022-10-23T01:44:03;99790.50;;;10.09;nan
6853;BME280;3465;42.144;24.722;2022-10-23T01:46:32;99799.88;;;10.09;nan
6853;BME280;3465;42.144;24.722;2022-10-23T01:49:01;99800.72;;;10.08;nan
6853;BME280;3465;42.144;24.722;2022-10-23T01:51:28;99797.16;;;10.03;nan
6853;BME280;3465;42.144;24.722;2022-10-23T01:53:58;99796.38;;;10.07;nan
6853;BME280;3465;42.144;24.722;2022-10-23T01:56:35;99793.09;;;10.11;nan
6853;BME280;3465;42.144;24.722;2022-10-23T01:59:07;99779.34;;;10.09;nan
6853;BME280;3465;42.144;24.722;2022-10-23T02:01:35;99783.75;;;10.15;nan
6853;BME280;3465;42.144;24.722;2022-10-23T02:04:04;99748.00;;;9.83;nan
6853;BME280;3465;42.144;24.722;2022-10-23T02:06:31;99784.19;;;9.95;nan
6853;BME280;3465;42.144;24.722;2022-10-23T02:08:56;99784.88;;;9.88;nan
6853;BME280;3465;42.144;24.722;2022-10-23T02:11:22;99792.72;;;9.96;nan
6853;BME280;3465;42.144;24.722;2022-10-23T02:21:47;99779.81;;;9.91;nan
6853;BME280;3465;42.144;24.722;2022-10-23T02:24:19;99793.88;;;10.08;nan
6853;BME280;3465;42.144;24.722;2022-10-23T02:26:52;99784.38;;;10.04;nan
6853;BME280;3465;42.144;24.722;2022-10-23T02:31:48;99742.84;;;9.82;nan
6853;BME280;3465;42.144;24.722;2022-10-23T02:34:13;99742.88;;;9.83;nan
6853;BME280;3465;42.144;24.722;2022-10-23T02:36:40;99807.94;;;10.26;nan
6853;BME280;3465;42.144;24.722;2022-10-23T02:39:05;99811.50;;;10.32;nan
6853;BME280;3465;42.144;24.722;2022-10-23T02:44:28;99833.03;;;10.39;nan
6853;BME280;3465;42.144;24.722;2022-10-23T02:49:43;99847.47;;;10.34;nan
6853;BME280;3465;42.144;24.722;2022-10-23T02:54:58;99834.81;;;10.43;nan
6853;BME280;3465;42.144;24.722;2022-10-23T02:57:31;99841.69;;;10.44;nan
6853;BME280;3465;42.144;24.722;2022-10-23T03:00:09;99815.72;;;10.30;nan
6853;BME280;3465;42.144;24.722;2022-10-23T03:02:57;99846.00;;;10.46;nan
6853;BME280;3465;42.144;24.722;2022-10-23T03:05:26;99843.41;;;10.45;nan
6853;BME280;3465;42.144;24.722;2022-10-23T03:07:53;99838.28;;;10.45;nan
6853;BME280;3465;42.144;24.722;2022-10-23T03:10:19;99847.63;;;10.41;nan
6853;BME280;3465;42.144;24.722;2022-10-23T03:12:44;99828.03;;;10.46;nan
6853;BME280;3465;42.144;24.722;2022-10-23T03:15:11;99831.66;;;10.56;nan
6853;BME280;3465;42.144;24.722;2022-10-23T03:17:37;99833.25;;;10.51;nan
6853;BME280;3465;42.144;24.722;2022-10-23T03:20:04;99822.91;;;10.46;nan
6853;BME280;3465;42.144;24.722;2022-10-23T03:22:30;99824.47;;;10.38;nan
6853;BME280;3465;42.144;24.722;2022-10-23T03:24:55;99839.13;;;10.44;nan
6853;BME280;3465;42.144;24.722;2022-10-23T03:27:20;99834.75;;;10.40;nan
6853;BME280;3465;42.144;24.722;2022-10-23T03:29:46;99817.47;;;10.33;nan
6853;BME280;3465;42.144;24.722;2022-10-23T03:32:11;99815.00;;;10.36;nan
6853;BME280;3465;42.144;24.722;2022-10-23T03:34:37;99839.34;;;10.54;nan
6853;BME280;3465;42.144;24.722;2022-10-23T03:37:05;99859.06;;;10.57;nan
6853;BME280;3465;42.144;24.722;2022-10-23T03:39:31;99862.63;;;10.63;nan
6853;BME280;3465;42.144;24.722;2022-10-23T03:41:56;99837.41;;;10.44;nan
6853;BME280;3465;42.144;24.722;2022-10-23T03:44:21;99856.66;;;10.64;nan
6853;BME280;3465;42.144;24.722;2022-10-23T03:46:47;99844.69;;;10.66;nan
6853;BME280;3465;42.144;24.722;2022-10-23T03:49:12;99842.34;;;10.77;nan
6853;BME280;3465;42.144;24.722;2022-10-23T03:51:37;99845.03;;;10.84;nan
6853;BME280;3465;42.144;24.722;2022-10-23T03:54:06;99850.44;;;10.98;nan
6853;BME280;3465;42.144;24.722;2022-10-23T03:56:33;99834.09;;;10.94;nan
6853;BME280;3465;42.144;24.722;2022-10-23T03:58:58;99840.94;;;10.94;nan
6853;BME280;3465;42.144;24.722;2022-10-23T04:01:24;99867.78;;;11.08;nan
6853;BME280;3465;42.144;24.722;2022-10-23T04:03:49;99875.53;;;11.11;nan
6853;BME280;3465;42.144;24.722;2022-10-23T04:06:15;99858.28;;;11.04;nan
6853;BME280;3465;42.144;24.722;2022-10-23T04:08:44;99845.44;;;11.05;nan
6853;BME280;3465;42.144;24.722;2022-10-23T04:11:10;99860.16;;;11.14;nan
6853;BME280;3465;42.144;24.722;2022-10-23T04:13:36;99854.19;;;11.16;nan
6853;BME280;3465;42.144;24.722;2022-10-23T04:16:01;99854.81;;;11.03;nan
6853;BME280;3465;42.144;24.722;2022-10-23T04:18:27;99859.84;;;10.96;nan
6853;BME280;3465;42.144;24.722;2022-10-23T04:20:52;99868.34;;;10.92;nan
6853;BME280;3465;42.144;24.722;2022-10-23T04:23:18;99853.56;;;10.80;nan
6853;BME280;3465;42.144;24.722;2022-10-23T04:25:44;99857.06;;;10.85;nan
6853;BME280;3465;42.144;24.722;2022-10-23T04:28:09;99841.34;;;10.70;nan
6853;BME280;3465;42.144;24.722;2022-10-23T04:30:35;99869.94;;;10.85;nan
6853;BME280;3465;42.144;24.722;2022-10-23T04:33:00;99850.81;;;10.73;nan
6853;BME280;3465;42.144;24.722;2022-10-23T04:35:25;99840.56;;;10.74;nan
6853;BME280;3465;42.144;24.722;2022-10-23T04:37:51;99858.78;;;10.85;nan
6853;BME280;3465;42.144;24.722;2022-10-23T04:40:16;99849.16;;;10.75;nan
6853;BME280;3465;42.144;24.722;2022-10-23T04:42:42;99865.72;;;10.90;nan
6853;BME280;3465;42.144;24.722;2022-10-23T04:45:07;99851.97;;;10.87;nan
6853;BME280;3465;42.144;24.722;2022-10-23T04:47:33;99845.16;;;10.90;nan
6853;BME280;3465;42.144;24.722;2022-10-23T04:49:58;99852.97;;;10.95;nan
6853;BME280;3465;42.144;24.722;2022-10-23T04:52:24;99859.88;;;10.99;nan
6853;BME280;3465;42.144;24.722;2022-10-23T04:54:49;99850.44;;;10.96;nan
6853;BME280;3465;42.144;24.722;2022-10-23T04:57:15;99852.25;;;11.03;nan
6853;BME280;3465;42.144;24.722;2022-10-23T04:59:40;99866.94;;;11.09;nan
6853;BME280;3465;42.144;24.722;2022-10-23T05:02:11;99840.94;;;10.94;nan
6853;BME280;3465;42.144;24.722;2022-10-23T05:04:37;99877.41;;;11.21;nan
6853;BME280;3465;42.144;24.722;2022-10-23T05:07:02;99877.41;;;11.21;nan
6853;BME280;3465;42.144;24.722;2022-10-23T05:09:28;99877.59;;;11.30;nan
6853;BME280;3465;42.144;24.722;2022-10-23T05:11:53;99889.72;;;11.38;nan
6853;BME280;3465;42.144;24.722;2022-10-23T05:14:19;99871.69;;;11.35;nan
6853;BME280;3465;42.144;24.722;2022-10-23T05:16:49;99878.72;;;11.47;nan
6853;BME280;3465;42.144;24.722;2022-10-23T05:19:26;99890.03;;;11.55;nan
6853;BME280;3465;42.144;24.722;2022-10-23T05:21:52;99883.25;;;11.60;nan
6853;BME280;3465;42.144;24.722;2022-10-23T05:24:23;99884.16;;;11.62;nan
6853;BME280;3465;42.144;24.722;2022-10-23T05:26:49;99893.81;;;11.75;nan
6853;BME280;3465;42.144;24.722;2022-10-23T05:29:17;99882.94;;;11.93;nan
6853;BME280;3465;42.144;24.722;2022-10-23T05:31:47;99897.34;;;12.41;nan
6853;BME280;3465;42.144;24.722;2022-10-23T05:34:14;99908.69;;;13.23;nan
6853;BME280;3465;42.144;24.722;2022-10-23T05:36:41;99906.06;;;14.21;nan
6853;BME280;3465;42.144;24.722;2022-10-23T05:39:07;99919.44;;;15.13;nan
6853;BME280;3465;42.144;24.722;2022-10-23T05:41:33;99917.84;;;16.06;nan
6853;BME280;3465;42.144;24.722;2022-10-23T05:43:58;99929.72;;;16.97;nan
6853;BME280;3465;42.144;24.722;2022-10-23T05:46:26;99932.75;;;17.68;nan
6853;BME280;3465;42.144;24.722;2022-10-23T05:48:53;99947.69;;;18.49;nan
6853;BME280;3465;42.144;24.722;2022-10-23T05:51:19;99959.91;;;19.14;nan
6853;BME280;3465;42.144;24.722;2022-10-23T05:53:50;99971.66;;;19.48;nan
6853;BME280;3465;42.144;24.722;2022-10-23T05:56:16;99959.88;;;20.34;nan
6853;BME280;3465;42.144;24.722;2022-10-23T05:58:41;99982.59;;;21.20;nan
6853;BME280;3465;42.144;24.722;2022-10-23T06:01:09;99975.00;;;21.48;nan
6853;BME280;3465;42.144;24.722;2022-10-23T06:03:36;99991.88;;;22.43;nan
6853;BME280;3465;42.144;24.722;2022-10-23T06:06:02;99990.34;;;22.70;nan
6853;BME280;3465;42.144;24.722;2022-10-23T06:08:29;99991.63;;;23.76;nan
6853;BME280;3465;42.144;24.722;2022-10-23T06:10:54;100001.53;;;24.74;nan
6853;BME280;3465;42.144;24.722;2022-10-23T06:13:20;100008.31;;;24.54;nan
6853;BME280;3465;42.144;24.722;2022-10-23T06:15:45;100011.81;;;24.80;nan
6853;BME280;3465;42.144;24.722;2022-10-23T06:18:11;99988.81;;;25.33;nan
6853;BME280;3465;42.144;24.722;2022-10-23T06:20:37;100001.19;;;25.76;nan
6853;BME280;3465;42.144;24.722;2022-10-23T06:23:06;100008.81;;;26.26;nan
6853;BME280;3465;42.144;24.722;2022-10-23T06:25:34;100008.41;;;26.15;nan
6853;BME280;3465;42.144;24.722;2022-10-23T06:28:00;100017.59;;;26.27;nan
6853;BME280;3465;42.144;24.722;2022-10-23T06:30:25;100020.78;;;27.35;nan
6853;BME280;3465;42.144;24.722;2022-10-23T06:32:51;100034.06;;;27.71;nan
6853;BME280;3465;42.144;24.722;2022-10-23T06:35:16;100040.31;;;28.05;nan
6853;BME280;3465;42.144;24.722;2022-10-23T06:37:42;99974.38;;;28.04;nan
6853;BME280;3465;42.144;24.722;2022-10-23T06:40:07;100042.03;;;28.42;nan
6853;BME280;3465;42.144;24.722;2022-10-23T06:42:34;100051.88;;;28.57;nan
6853;BME280;3465;42.144;24.722;2022-10-23T06:44:59;100058.72;;;28.78;nan
6853;BME280;3465;42.144;24.722;2022-10-23T06:47:24;100068.69;;;29.07;nan
6853;BME280;3465;42.144;24.722;2022-10-23T06:49:50;100055.84;;;28.30;nan
6853;BME280;3465;42.144;24.722;2022-10-23T06:52:15;100083.53;;;29.10;nan
6853;BME280;3465;42.144;24.722;2022-10-23T06:54:44;100095.09;;;29.74;nan
6853;BME280;3465;42.144;24.722;2022-10-23T06:57:09;100078.56;;;30.33;nan
6853;BME280;3465;42.144;24.722;2022-10-23T06:59:34;100078.81;;;30.89;nan
6853;BME280;3465;42.144;24.722;2022-10-23T07:02:00;100094.13;;;31.28;nan
6853;BME280;3465;42.144;24.722;2022-10-23T07:04:25;100095.03;;;31.84;nan
6853;BME280;3465;42.144;24.722;2022-10-23T07:06:54;100108.69;;;31.92;nan
6853;BME280;3465;42.144;24.722;2022-10-23T07:09:20;100096.91;;;31.68;nan
6853;BME280;3465;42.144;24.722;2022-10-23T07:11:45;100087.34;;;32.21;nan
6853;BME280;3465;42.144;24.722;2022-10-23T07:14:11;100106.38;;;32.94;nan
6853;BME280;3465;42.144;24.722;2022-10-23T07:16:36;100088.69;;;32.28;nan
6853;BME280;3465;42.144;24.722;2022-10-23T07:19:01;100093.50;;;32.62;nan
6853;BME280;3465;42.144;24.722;2022-10-23T07:21:32;100087.31;;;32.08;nan
6853;BME280;3465;42.144;24.722;2022-10-23T07:23:59;100112.69;;;32.26;nan
6853;BME280;3465;42.144;24.722;2022-10-23T07:26:24;100094.28;;;32.37;nan
6853;BME280;3465;42.144;24.722;2022-10-23T07:28:50;100108.38;;;31.83;nan
6853;BME280;3465;42.144;24.722;2022-10-23T07:31:23;100123.22;;;32.42;nan
6853;BME280;3465;42.144;24.722;2022-10-23T07:33:49;100117.09;;;32.54;nan
6853;BME280;3465;42.144;24.722;2022-10-23T07:36:15;100118.75;;;32.69;nan
6853;BME280;3465;42.144;24.722;2022-10-23T07:38:40;100111.88;;;33.68;nan
6853;BME280;3465;42.144;24.722;2022-10-23T07:41:06;100112.09;;;34.26;nan
6853;BME280;3465;42.144;24.722;2022-10-23T07:43:31;100121.25;;;33.99;nan
6853;BME280;3465;42.144;24.722;2022-10-23T07:45:58;100114.84;;;34.61;nan
6853;BME280;3465;42.144;24.722;2022-10-23T07:48:23;100106.53;;;34.29;nan
6853;BME280;3465;42.144;24.722;2022-10-23T07:50:51;100116.00;;;34.33;nan
6853;BME280;3465;42.144;24.722;2022-10-23T07:53:19;100134.19;;;34.76;nan
6853;BME280;3465;42.144;24.722;2022-10-23T07:55:56;100118.19;;;33.67;nan
6853;BME280;3465;42.144;24.722;2022-10-23T07:58:23;100117.16;;;33.30;nan
6853;BME280;3465;42.144;24.722;2022-10-23T08:00:59;100118.47;;;33.63;nan
6853;BME280;3465;42.144;24.722;2022-10-23T08:03:27;100121.78;;;33.66;nan
6853;BME280;3465;42.144;24.722;2022-10-23T08:05:53;100110.69;;;33.22;nan
6853;BME280;3465;42.144;24.722;2022-10-23T08:08:20;100059.34;;;32.95;nan
6853;BME280;3465;42.144;24.722;2022-10-23T08:10:47;100113.59;;;33.44;nan
6853;BME280;3465;42.144;24.722;2022-10-23T08:13:16;100123.91;;;33.61;nan
6853;BME280;3465;42.144;24.722;2022-10-23T08:15:45;100099.13;;;32.31;nan
6853;BME280;3465;42.144;24.722;2022-10-23T08:18:11;100105.56;;;32.41;nan
6853;BME280;3465;42.144;24.722;2022-10-23T08:20:39;100108.19;;;32.55;nan
6853;BME280;3465;42.144;24.722;2022-10-23T08:23:05;100107.28;;;33.20;nan
6853;BME280;3465;42.144;24.722;2022-10-23T08:25:31;100115.03;;;32.71;nan
6853;BME280;3465;42.144;24.722;2022-10-23T08:27:57;100108.81;;;32.58;nan
6853;BME280;3465;42.144;24.722;2022-10-23T08:30:22;100104.72;;;31.71;nan
6853;BME280;3465;42.144;24.722;2022-10-23T08:32:48;100090.69;;;32.10;nan
6853;BME280;3465;42.144;24.722;2022-10-23T08:35:13;100073.72;;;32.39;nan
6853;BME280;3465;42.144;24.722;2022-10-23T08:37:38;100092.06;;;32.30;nan
6853;BME280;3465;42.144;24.722;2022-10-23T08:40:04;100091.03;;;32.32;nan
6853;BME280;3465;42.144;24.722;2022-10-23T08:42:30;100097.00;;;32.36;nan
6853;BME280;3465;42.144;24.722;2022-10-23T08:45:07;100093.13;;;31.58;nan
6853;BME280;3465;42.144;24.722;2022-10-23T08:47:43;100066.16;;;31.92;nan
6853;BME280;3465;42.144;24.722;2022-10-23T08:51:04;100084.47;;;32.64;nan
6853;BME280;3465;42.144;24.722;2022-10-23T08:56:01;100103.25;;;33.52;nan
6853;BME280;3465;42.144;24.722;2022-10-23T08:58:42;100085.22;;;32.13;nan
6853;BME280;3465;42.144;24.722;2022-10-23T09:04:30;100076.59;;;33.27;nan
6853;BME280;3465;42.144;24.722;2022-10-23T09:12:40;100083.50;;;34.16;nan
6853;BME280;3465;42.144;24.722;2022-10-23T09:17:56;100092.84;;;34.34;nan
6853;BME280;3465;42.144;24.722;2022-10-23T09:20:32;100098.38;;;34.91;nan
6853;BME280;3465;42.144;24.722;2022-10-23T09:23:20;100097.72;;;34.52;nan
6853;BME280;3465;42.144;24.722;2022-10-23T09:25:47;100104.88;;;34.52;nan
6853;BME280;3465;42.144;24.722;2022-10-23T09:28:21;100097.66;;;34.05;nan
6853;BME280;3465;42.144;24.722;2022-10-23T09:30:48;100097.81;;;34.15;nan
6853;BME280;3465;42.144;24.722;2022-10-23T09:33:14;100102.06;;;34.88;nan
6853;BME280;3465;42.144;24.722;2022-10-23T09:35:51;100102.06;;;34.88;nan
6853;BME280;3465;42.144;24.722;2022-10-23T09:38:58;100111.28;;;35.08;nan
6853;BME280;3465;42.144;24.722;2022-10-23T09:41:37;100105.56;;;35.58;nan
6853;BME280;3465;42.144;24.722;2022-10-23T09:49:02;100086.88;;;35.12;nan
6853;BME280;3465;42.144;24.722;2022-10-23T09:51:28;100096.97;;;35.09;nan
6853;BME280;3465;42.144;24.722;2022-10-23T09:54:00;100078.09;;;35.45;nan
6853;BME280;3465;42.144;24.722;2022-10-23T09:56:29;100095.94;;;36.11;nan
6853;BME280;3465;42.144;24.722;2022-10-23T09:58:58;100085.88;;;36.88;nan
6853;BME280;3465;42.144;24.722;2022-10-23T10:01:33;100085.72;;;36.90;nan
6853;BME280;3465;42.144;24.722;2022-10-23T10:04:00;100068.81;;;36.89;nan
6853;BME280;3465;42.144;24.722;2022-10-23T10:06:31;100079.91;;;36.85;nan
6853;BME280;3465;42.144;24.722;2022-10-23T10:08:59;100088.69;;;36.87;nan
6853;BME280;3465;42.144;24.722;2022-10-23T10:17:02;100059.97;;;37.19;nan
6853;BME280;3465;42.144;24.722;2022-10-23T10:19:41;100077.16;;;37.67;nan
6853;BME280;3465;42.144;24.722;2022-10-23T10:29:47;100065.13;;;38.01;nan
6853;BME280;3465;42.144;24.722;2022-10-23T10:40:32;100054.25;;;37.03;nan
6853;BME280;3465;42.144;24.722;2022-10-23T10:48:33;100044.09;;;37.27;nan
6853;BME280;3465;42.144;24.722;2022-10-23T10:54:04;100029.69;;;36.66;nan
6853;BME280;3465;42.144;24.722;2022-10-23T10:56:37;99979.59;;;36.37;nan
6853;BME280;3465;42.144;24.722;2022-10-23T10:59:28;100031.34;;;36.15;nan
6853;BME280;3465;42.144;24.722;2022-10-23T11:02:20;100026.06;;;35.71;nan
6853;BME280;3465;42.144;24.722;2022-10-23T11:10:31;100002.13;;;35.03;nan
6853;BME280;3465;42.144;24.722;2022-10-23T11:12:57;100025.34;;;35.25;nan
6853;BME280;3465;42.144;24.722;2022-10-23T11:15:27;100016.38;;;35.37;nan
6853;BME280;3465;42.144;24.722;2022-10-23T11:18:01;100002.00;;;34.94;nan
6853;BME280;3465;42.144;24.722;2022-10-23T11:26:14;100010.75;;;35.07;nan
6853;BME280;3465;42.144;24.722;2022-10-23T11:29:26;100007.75;;;34.77;nan
6853;BME280;3465;42.144;24.722;2022-10-23T11:32:04;100001.25;;;34.92;nan
6853;BME280;3465;42.144;24.722;2022-10-23T11:37:35;99971.88;;;34.22;nan
6853;BME280;3465;42.144;24.722;2022-10-23T11:45:36;99980.16;;;33.83;nan
6853;BME280;3465;42.144;24.722;2022-10-23T11:48:03;99976.22;;;33.76;nan
6853;BME280;3465;42.144;24.722;2022-10-23T11:50:31;99970.53;;;34.17;nan
6853;BME280;3465;42.144;24.722;2022-10-23T11:53:04;99967.75;;;33.95;nan
6853;BME280;3465;42.144;24.722;2022-10-23T11:55:35;99941.47;;;33.54;nan
6853;BME280;3465;42.144;24.722;2022-10-23T12:00:29;99971.22;;;33.23;nan
6853;BME280;3465;42.144;24.722;2022-10-23T12:02:55;99944.13;;;33.54;nan
6853;BME280;3465;42.144;24.722;2022-10-23T12:05:37;99932.56;;;33.90;nan
6853;BME280;3465;42.144;24.722;2022-10-23T12:08:19;99944.63;;;33.95;nan
6853;BME280;3465;42.144;24.722;2022-10-23T12:10:48;99944.47;;;33.73;nan
6853;BME280;3465;42.144;24.722;2022-10-23T12:16:05;99937.16;;;32.65;nan
6853;BME280;3465;42.144;24.722;2022-10-23T12:18:31;99941.88;;;32.23;nan
6853;BME280;3465;42.144;24.722;2022-10-23T12:21:00;99942.19;;;31.91;nan
6853;BME280;3465;42.144;24.722;2022-10-23T12:24:33;99941.09;;;31.41;nan
6853;BME280;3465;42.144;24.722;2022-10-23T12:26:42;99938.91;;;30.77;nan
6853;BME280;3465;42.144;24.722;2022-10-23T12:40:22;99930.25;;;29.07;nan
6853;BME280;3465;42.144;24.722;2022-10-23T12:42:55;99928.25;;;28.78;nan
6853;BME280;3465;42.144;24.722;2022-10-23T12:45:30;99928.56;;;28.56;nan
6853;BME280;3465;42.144;24.722;2022-10-23T12:47:57;99908.69;;;28.48;nan
6853;BME280;3465;42.144;24.722;2022-10-23T12:50:28;99925.75;;;28.42;nan
6853;BME280;3465;42.144;24.722;2022-10-23T12:52:58;99919.44;;;28.45;nan
6853;BME280;3465;42.144;24.722;2022-10-23T12:55:29;99919.31;;;28.31;nan
6853;BME280;3465;42.144;24.722;2022-10-23T12:57:55;99902.91;;;28.24;nan
6853;BME280;3465;42.144;24.722;2022-10-23T13:00:23;99922.31;;;28.06;nan
6853;BME280;3465;42.144;24.722;2022-10-23T13:03:02;99907.63;;;28.00;nan
6853;BME280;3465;42.144;24.722;2022-10-23T13:05:29;99905.13;;;27.97;nan
6853;BME280;3465;42.144;24.722;2022-10-23T13:07:57;99910.97;;;28.04;nan
6853;BME280;3465;42.144;24.722;2022-10-23T13:10:24;99895.13;;;28.04;nan
6853;BME280;3465;42.144;24.722;2022-10-23T13:13:02;99895.25;;;27.84;nan
6853;BME280;3465;42.144;24.722;2022-10-23T13:15:37;99913.69;;;28.02;nan
6853;BME280;3465;42.144;24.722;2022-10-23T13:18:04;99917.91;;;27.88;nan
6853;BME280;3465;42.144;24.722;2022-10-23T13:20:36;99904.84;;;27.68;nan
6853;BME280;3465;42.144;24.722;2022-10-23T13:23:18;99916.94;;;27.72;nan
6853;BME280;3465;42.144;24.722;2022-10-23T13:25:59;99911.50;;;27.75;nan
6853;BME280;3465;42.144;24.722;2022-10-23T13:28:44;99912.94;;;27.82;nan
6853;BME280;3465;42.144;24.722;2022-10-23T13:33:47;99904.66;;;27.54;nan
6853;BME280;3465;42.144;24.722;2022-10-23T13:41:13;99897.47;;;27.39;nan
6853;BME280;3465;42.144;24.722;2022-10-23T13:43:39;99903.63;;;27.39;nan
6853;BME280;3465;42.144;24.722;2022-10-23T13:46:05;99903.88;;;27.33;nan
6853;BME280;3465;42.144;24.722;2022-10-23T13:48:36;99903.97;;;27.32;nan
6853;BME280;3465;42.144;24.722;2022-10-23T13:51:13;99908.47;;;27.30;nan
6853;BME280;3465;42.144;24.722;2022-10-23T13:53:39;99874.97;;;26.93;nan
6853;BME280;3465;42.144;24.722;2022-10-23T13:56:05;99903.59;;;27.02;nan
6853;BME280;3465;42.144;24.722;2022-10-23T13:58:30;99890.03;;;26.91;nan
6853;BME280;3465;42.144;24.722;2022-10-23T14:00:59;99902.13;;;26.77;nan
6853;BME280;3465;42.144;24.722;2022-10-23T14:03:25;99896.59;;;26.83;nan
6853;BME280;3465;42.144;24.722;2022-10-23T14:05:50;99891.31;;;26.83;nan
6853;BME280;3465;42.144;24.722;2022-10-23T14:08:16;99899.28;;;26.81;nan
6853;BME280;3465;42.144;24.722;2022-10-23T14:10:41;99892.84;;;26.68;nan
6853;BME280;3465;42.144;24.722;2022-10-23T14:13:07;99893.41;;;26.54;nan
6853;BME280;3465;42.144;24.722;2022-10-23T14:15:32;99894.03;;;26.41;nan
6853;BME280;3465;42.144;24.722;2022-10-23T14:17:57;99886.00;;;26.44;nan
6853;BME280;3465;42.144;24.722;2022-10-23T14:20:23;99882.78;;;26.37;nan
6853;BME280;3465;42.144;24.722;2022-10-23T14:22:48;99878.97;;;26.24;nan
6853;BME280;3465;42.144;24.722;2022-10-23T14:25:14;99880.28;;;26.14;nan
6853;BME280;3465;42.144;24.722;2022-10-23T14:27:43;99895.03;;;26.18;nan
6853;BME280;3465;42.144;24.722;2022-10-23T14:30:09;99886.28;;;26.18;nan
6853;BME280;3465;42.144;24.722;2022-10-23T14:32:35;99891.41;;;26.21;nan
6853;BME280;3465;42.144;24.722;2022-10-23T14:35:01;99893.50;;;26.13;nan
6853;BME280;3465;42.144;24.722;2022-10-23T14:37:32;99895.31;;;25.91;nan
6853;BME280;3465;42.144;24.722;2022-10-23T14:39:58;99902.13;;;25.75;nan
6853;BME280;3465;42.144;24.722;2022-10-23T14:42:23;99890.03;;;25.71;nan
6853;BME280;3465;42.144;24.722;2022-10-23T14:44:49;99879.22;;;25.55;nan
6853;BME280;3465;42.144;24.722;2022-10-23T14:47:15;99873.16;;;25.31;nan
6853;BME280;3465;42.144;24.722;2022-10-23T14:49:45;99902.75;;;25.38;nan
6853;BME280;3465;42.144;24.722;2022-10-23T14:52:12;99886.44;;;25.28;nan
6853;BME280;3465;42.144;24.722;2022-10-23T14:54:37;99878.94;;;25.18;nan
6853;BME280;3465;42.144;24.722;2022-10-23T14:57:03;99893.81;;;24.96;nan
6853;BME280;3465;42.144;24.722;2022-10-23T14:59:28;99893.03;;;24.94;nan
6853;BME280;3465;42.144;24.722;2022-10-23T15:01:54;99886.41;;;24.84;nan
6853;BME280;3465;42.144;24.722;2022-10-23T15:04:19;99898.63;;;24.85;nan
6853;BME280;3465;42.144;24.722;2022-10-23T15:06:45;99901.72;;;24.73;nan
6853;BME280;3465;42.144;24.722;2022-10-23T15:09:11;99898.44;;;24.66;nan
6853;BME280;3465;42.144;24.722;2022-10-23T15:11:37;99901.06;;;24.42;nan
6853;BME280;3465;42.144;24.722;2022-10-23T15:14:02;99909.75;;;24.44;nan
6853;BME280;3465;42.144;24.722;2022-10-23T15:16:28;99902.28;;;24.07;nan
6853;BME280;3465;42.144;24.722;2022-10-23T15:18:53;99915.88;;;24.20;nan
6853;BME280;3465;42.144;24.722;2022-10-23T15:21:19;99909.25;;;24.08;nan
6853;BME280;3465;42.144;24.722;2022-10-23T15:23:45;99906.63;;;24.08;nan
6853;BME280;3465;42.144;24.722;2022-10-23T15:26:13;99909.53;;;23.99;nan
6853;BME280;3465;42.144;24.722;2022-10-23T15:28:41;99892.63;;;23.81;nan
6853;BME280;3465;42.144;24.722;2022-10-23T15:31:23;99902.50;;;23.73;nan
6853;BME280;3465;42.144;24.722;2022-10-23T15:34:06;99913.34;;;23.63;nan
6853;BME280;3465;42.144;24.722;2022-10-23T15:36:32;99903.84;;;23.60;nan
6853;BME280;3465;42.144;24.722;2022-10-23T15:38:57;99905.53;;;23.61;nan
6853;BME280;3465;42.144;24.722;2022-10-23T15:41:27;99900.84;;;23.43;nan
6853;BME280;3465;42.144;24.722;2022-10-23T15:43:53;99928.72;;;23.47;nan
6853;BME280;3465;42.144;24.722;2022-10-23T15:46:19;99929.94;;;23.36;nan
6853;BME280;3465;42.144;24.722;2022-10-23T15:48:44;99929.38;;;23.25;nan
6853;BME280;3465;42.144;24.722;2022-10-23T15:51:10;99933.00;;;23.21;nan
6853;BME280;3465;42.144;24.722;2022-10-23T15:53:35;99941.91;;;23.15;nan